Wednesday, November 26, 2014
23:06 UTC
  |  Log In   |  Register Free
Airport Search:

Gainesville Municipal Airport
(KGLE)

FAA data valid effective November 13, 2014 - January 08, 2015 (unless otherwise noted).

 
 
 
 
 
 
 
 
 
 
 
 
 
 

Current Aviation Weather for Gainesville Municipal Airport (KGLE)

The most recent METAR observation for KGLE was updated at: 2220
METAR Summary (Translated METAR)
KGLE
262155Z AUTO 31010KT 10SM CLR 16/01 A3023 RMK AO2 T01590011
KGYI
262155Z AUTO 30010G15KT 10SM CLR 16/02 A3022 RMK AO2 T01630018
(26.4 nm NE from KGLE)
KDTO
262153Z 32011KT 10SM CLR 17/01 A3022 RMK AO2 SLP230 T01670006
(27 nm SW from KGLE)
TAF
No TAF information found within 50 nm of KGLE
  Airport Weather Conditions for KGLE

 Current Weather at GLE
61° F
Fair
Northwest winds at 10.4 mph
GLE NOAA Radar

Pressure: 30.23 in
Humidity: 36%
Wind: Northwest at 10.4 MPH (9 KT)
Dew Point: 33.4°F
Visibility: 10.00 mi


Airport Weather Forecast for KGLE

Translated METAR and TAF for KGLE
Translated METAR for KGLE (2301 UTC 26 November 2014)
found at http://aviationweather.gov/adds/metars/
 
METAR text: KGLE 262235Z AUTO 32010KT 10SM CLR 15/01 A3025 RMK AO2 T01520010
Conditions at: KGLE (GAINESVILLE , TX, US) observed 2235 UTC 26 November 2014
Temperature: 15.2°C (59°F)
Dewpoint: 1.0°C (34°F) [RH = 38%]
Pressure (altimeter): 30.25 inches Hg (1024.5 mb)
Winds: from the NW (320 degrees) at 12 MPH (10 knots; 5.2 m/s)
Visibility: 10 or more miles (16+ km)
Ceiling: at least 12,000 feet AGL
Clouds: sky clear below 12,000 feet AGL
Weather: automated observation with no human augmentation;
there may or may not be significant weather present at this time
Translated TAF for KGLE

There is no translated TAF available for this airport

Find All Airport Services Find A Hotel Find A Rental Car Find A Golf Course Find A Restaurant $100 Hamburger



FBO's on the Field
FBO Company Facility Photos Services Transportation Aviation Fuel Prices: Prices include tax
Catering Weather Repair Courtesy Rental Type 100LL JetA JetA+ MOGAS 8087
 
City of Gainesville Municipal Airport

This FBO has not yet been rated
FS:Phillips 66
Last Updated: Nov-10
Login to update fuel prices
SS:
Contact City of Gainesville Municipal AirportMore FBO Information
 
Add another FBO Facility Photos Catering Weather Repair Courtesy Rental Type 100LL JetA JetA+ MOGAS 8087
Services Transportation Aviation Fuel Prices: Prices include tax


model-print
model-print
model-print
model-print